sensor_id;sensor_type;location;lat;lon;timestamp;pressure;altitude;pressure_sealevel;temperature
67501;BMP180;54349;52.528;19.760;2023-09-30T00:00:07;100701.00;;;20.46
67501;BMP180;54349;52.528;19.760;2023-09-30T00:02:58;100704.60;;;20.90
67501;BMP180;54349;52.528;19.760;2023-09-30T00:05:31;100704.60;;;20.80
67501;BMP180;54349;52.528;19.760;2023-09-30T00:08:00;100707.00;;;20.64
67501;BMP180;54349;52.528;19.760;2023-09-30T00:10:28;100708.40;;;20.56
67501;BMP180;54349;52.528;19.760;2023-09-30T00:12:58;100708.60;;;20.50
67501;BMP180;54349;52.528;19.760;2023-09-30T00:15:27;100699.80;;;20.40
67501;BMP180;54349;52.528;19.760;2023-09-30T00:17:55;100704.40;;;20.30
67501;BMP180;54349;52.528;19.760;2023-09-30T00:20:24;100704.20;;;20.30
67501;BMP180;54349;52.528;19.760;2023-09-30T00:22:52;100695.60;;;20.20
67501;BMP180;54349;52.528;19.760;2023-09-30T00:25:20;100693.00;;;20.20
67501;BMP180;54349;52.528;19.760;2023-09-30T00:27:49;100693.40;;;20.10
67501;BMP180;54349;52.528;19.760;2023-09-30T00:30:17;100681.00;;;20.10
67501;BMP180;54349;52.528;19.760;2023-09-30T00:32:45;100683.00;;;20.10
67501;BMP180;54349;52.528;19.760;2023-09-30T00:35:15;100679.00;;;20.10
67501;BMP180;54349;52.528;19.760;2023-09-30T00:37:44;100675.40;;;20.10
67501;BMP180;54349;52.528;19.760;2023-09-30T00:40:12;100678.60;;;20.08
67501;BMP180;54349;52.528;19.760;2023-09-30T00:42:41;100679.60;;;20.00
67501;BMP180;54349;52.528;19.760;2023-09-30T00:45:11;100676.20;;;20.00
67501;BMP180;54349;52.528;19.760;2023-09-30T00:47:40;100678.80;;;20.00
67501;BMP180;54349;52.528;19.760;2023-09-30T00:50:10;100679.40;;;20.00
67501;BMP180;54349;52.528;19.760;2023-09-30T00:52:41;100679.60;;;19.90
67501;BMP180;54349;52.528;19.760;2023-09-30T00:55:11;100679.20;;;20.00
67501;BMP180;54349;52.528;19.760;2023-09-30T00:57:42;100678.00;;;20.52
67501;BMP180;54349;52.528;19.760;2023-09-30T01:00:13;100683.20;;;21.00
67501;BMP180;54349;52.528;19.760;2023-09-30T01:02:42;100677.80;;;20.88
67501;BMP180;54349;52.528;19.760;2023-09-30T01:05:12;100684.00;;;20.60
67501;BMP180;54349;52.528;19.760;2023-09-30T01:07:41;100692.60;;;20.40
67501;BMP180;54349;52.528;19.760;2023-09-30T01:10:10;100687.20;;;20.30
67501;BMP180;54349;52.528;19.760;2023-09-30T01:12:38;100686.80;;;20.62
67501;BMP180;54349;52.528;19.760;2023-09-30T01:15:07;100691.20;;;21.02
67501;BMP180;54349;52.528;19.760;2023-09-30T01:17:35;100688.40;;;21.10
67501;BMP180;54349;52.528;19.760;2023-09-30T01:20:06;100685.80;;;20.80
67501;BMP180;54349;52.528;19.760;2023-09-30T01:22:35;100684.60;;;20.52
67501;BMP180;54349;52.528;19.760;2023-09-30T01:25:04;100677.60;;;20.30
67501;BMP180;54349;52.528;19.760;2023-09-30T01:27:32;100683.40;;;20.56
67501;BMP180;54349;52.528;19.760;2023-09-30T01:30:01;100683.80;;;20.92
67501;BMP180;54349;52.528;19.760;2023-09-30T01:32:29;100685.00;;;21.20
67501;BMP180;54349;52.528;19.760;2023-09-30T01:34:58;100670.80;;;20.92
67501;BMP180;54349;52.528;19.760;2023-09-30T01:37:29;100670.40;;;20.60
67501;BMP180;54349;52.528;19.760;2023-09-30T01:39:57;100670.00;;;20.44
67501;BMP180;54349;52.528;19.760;2023-09-30T01:42:26;100668.60;;;20.72
67501;BMP180;54349;52.528;19.760;2023-09-30T01:44:55;100674.80;;;21.06
67501;BMP180;54349;52.528;19.760;2023-09-30T01:47:25;100666.80;;;21.20
67501;BMP180;54349;52.528;19.760;2023-09-30T01:50:04;100666.20;;;20.80
67501;BMP180;54349;52.528;19.760;2023-09-30T01:52:34;100666.60;;;20.76
67501;BMP180;54349;52.528;19.760;2023-09-30T01:55:03;100660.60;;;21.02
67501;BMP180;54349;52.528;19.760;2023-09-30T01:57:33;100661.00;;;21.30
67501;BMP180;54349;52.528;19.760;2023-09-30T02:00:02;100662.80;;;21.16
67501;BMP180;54349;52.528;19.760;2023-09-30T02:02:39;100658.60;;;20.80
67501;BMP180;54349;52.528;19.760;2023-09-30T02:05:09;100659.80;;;20.80
67501;BMP180;54349;52.528;19.760;2023-09-30T02:07:37;100655.20;;;21.10
67501;BMP180;54349;52.528;19.760;2023-09-30T02:10:07;100654.60;;;21.34
67501;BMP180;54349;52.528;19.760;2023-09-30T02:12:36;100649.20;;;21.14
67501;BMP180;54349;52.528;19.760;2023-09-30T02:15:07;100646.80;;;20.80
67501;BMP180;54349;52.528;19.760;2023-09-30T02:17:35;100646.60;;;20.82
67501;BMP180;54349;52.528;19.760;2023-09-30T02:20:07;100646.00;;;21.10
67501;BMP180;54349;52.528;19.760;2023-09-30T02:22:42;100650.80;;;21.38
67501;BMP180;54349;52.528;19.760;2023-09-30T02:25:12;100660.00;;;21.10
67501;BMP180;54349;52.528;19.760;2023-09-30T02:27:42;100656.40;;;20.70
67501;BMP180;54349;52.528;19.760;2023-09-30T02:30:12;100674.80;;;20.74
67501;BMP180;54349;52.528;19.760;2023-09-30T02:32:45;100676.40;;;21.02
67501;BMP180;54349;52.528;19.760;2023-09-30T02:35:16;100682.20;;;21.30
67501;BMP180;54349;52.528;19.760;2023-09-30T02:37:45;100679.80;;;21.22
67501;BMP180;54349;52.528;19.760;2023-09-30T02:40:14;100678.00;;;20.88
67501;BMP180;54349;52.528;19.760;2023-09-30T02:42:47;100680.60;;;20.88
67501;BMP180;54349;52.528;19.760;2023-09-30T02:45:18;100679.00;;;21.10
67501;BMP180;54349;52.528;19.760;2023-09-30T02:47:47;100677.20;;;21.38
67501;BMP180;54349;52.528;19.760;2023-09-30T02:50:16;100673.00;;;21.24
67501;BMP180;54349;52.528;19.760;2023-09-30T02:52:44;100674.40;;;20.82
67501;BMP180;54349;52.528;19.760;2023-09-30T02:55:13;100667.20;;;20.90
67501;BMP180;54349;52.528;19.760;2023-09-30T02:57:44;100663.20;;;21.20
67501;BMP180;54349;52.528;19.760;2023-09-30T03:00:16;100656.40;;;21.40
67501;BMP180;54349;52.528;19.760;2023-09-30T03:02:54;100664.40;;;21.20
67501;BMP180;54349;52.528;19.760;2023-09-30T03:05:25;100666.40;;;20.80
67501;BMP180;54349;52.528;19.760;2023-09-30T03:07:54;100661.40;;;20.92
67501;BMP180;54349;52.528;19.760;2023-09-30T03:10:23;100658.80;;;21.20
67501;BMP180;54349;52.528;19.760;2023-09-30T03:12:56;100657.20;;;21.40
67501;BMP180;54349;52.528;19.760;2023-09-30T03:15:30;100650.60;;;21.12
67501;BMP180;54349;52.528;19.760;2023-09-30T03:18:01;100644.60;;;20.80
67501;BMP180;54349;52.528;19.760;2023-09-30T03:20:32;100647.80;;;20.90
67501;BMP180;54349;52.528;19.760;2023-09-30T03:23:03;100646.60;;;21.18
67501;BMP180;54349;52.528;19.760;2023-09-30T03:25:33;100639.40;;;21.40
67501;BMP180;54349;52.528;19.760;2023-09-30T03:28:03;100639.60;;;21.26
67501;BMP180;54349;52.528;19.760;2023-09-30T03:30:34;100638.20;;;20.90
67501;BMP180;54349;52.528;19.760;2023-09-30T03:33:04;100637.80;;;21.08
67501;BMP180;54349;52.528;19.760;2023-09-30T03:35:33;100641.40;;;21.30
67501;BMP180;54349;52.528;19.760;2023-09-30T03:38:02;100640.80;;;21.50
67501;BMP180;54349;52.528;19.760;2023-09-30T03:40:33;100645.80;;;21.16
67501;BMP180;54349;52.528;19.760;2023-09-30T03:43:03;100646.80;;;20.80
67501;BMP180;54349;52.528;19.760;2023-09-30T03:45:32;100649.20;;;20.94
67501;BMP180;54349;52.528;19.760;2023-09-30T03:48:01;100642.80;;;21.20
67501;BMP180;54349;52.528;19.760;2023-09-30T03:50:30;100649.20;;;21.40
67501;BMP180;54349;52.528;19.760;2023-09-30T03:53:03;100647.80;;;21.20
67501;BMP180;54349;52.528;19.760;2023-09-30T03:55:33;100640.60;;;20.80
67501;BMP180;54349;52.528;19.760;2023-09-30T03:58:01;100646.20;;;20.80
67501;BMP180;54349;52.528;19.760;2023-09-30T04:00:31;100649.20;;;21.06
67501;BMP180;54349;52.528;19.760;2023-09-30T04:03:00;100647.00;;;21.30
67501;BMP180;54349;52.528;19.760;2023-09-30T04:05:31;100648.20;;;21.30
67501;BMP180;54349;52.528;19.760;2023-09-30T04:08:05;100648.00;;;20.90
67501;BMP180;54349;52.528;19.760;2023-09-30T04:10:33;100644.20;;;20.90
67501;BMP180;54349;52.528;19.760;2023-09-30T04:13:02;100644.80;;;21.10
67501;BMP180;54349;52.528;19.760;2023-09-30T04:15:31;100645.80;;;21.30
67501;BMP180;54349;52.528;19.760;2023-09-30T04:17:59;100642.80;;;21.30
67501;BMP180;54349;52.528;19.760;2023-09-30T04:20:29;100643.80;;;20.90
67501;BMP180;54349;52.528;19.760;2023-09-30T04:22:58;100654.40;;;20.80
67501;BMP180;54349;52.528;19.760;2023-09-30T04:25:26;100653.60;;;21.00
67501;BMP180;54349;52.528;19.760;2023-09-30T04:27:55;100652.80;;;21.26
67501;BMP180;54349;52.528;19.760;2023-09-30T04:30:23;100651.60;;;21.30
67501;BMP180;54349;52.528;19.760;2023-09-30T04:32:52;100652.00;;;20.98
67501;BMP180;54349;52.528;19.760;2023-09-30T04:35:21;100650.60;;;20.94
67501;BMP180;54349;52.528;19.760;2023-09-30T04:37:50;100652.20;;;21.20
67501;BMP180;54349;52.528;19.760;2023-09-30T04:40:19;100657.60;;;21.36
67501;BMP180;54349;52.528;19.760;2023-09-30T04:42:50;100657.40;;;21.30
67501;BMP180;54349;52.528;19.760;2023-09-30T04:45:18;100653.80;;;20.88
67501;BMP180;54349;52.528;19.760;2023-09-30T04:47:54;100657.00;;;20.70
67501;BMP180;54349;52.528;19.760;2023-09-30T04:50:24;100655.40;;;20.96
67501;BMP180;54349;52.528;19.760;2023-09-30T04:52:53;100656.60;;;21.20
67501;BMP180;54349;52.528;19.760;2023-09-30T04:55:22;100659.20;;;21.30
67501;BMP180;54349;52.528;19.760;2023-09-30T04:57:50;100662.20;;;21.00
67501;BMP180;54349;52.528;19.760;2023-09-30T05:00:20;100673.40;;;20.80
67501;BMP180;54349;52.528;19.760;2023-09-30T05:02:58;100670.00;;;20.98
67501;BMP180;54349;52.528;19.760;2023-09-30T05:05:27;100680.20;;;21.20
67501;BMP180;54349;52.528;19.760;2023-09-30T05:07:57;100679.60;;;21.40
67501;BMP180;54349;52.528;19.760;2023-09-30T05:10:26;100679.40;;;21.10
67501;BMP180;54349;52.528;19.760;2023-09-30T05:12:55;100677.00;;;20.80
67501;BMP180;54349;52.528;19.760;2023-09-30T05:15:23;100678.40;;;20.90
67501;BMP180;54349;52.528;19.760;2023-09-30T05:17:52;100686.00;;;21.16
67501;BMP180;54349;52.528;19.760;2023-09-30T05:20:21;100693.00;;;21.30
67501;BMP180;54349;52.528;19.760;2023-09-30T05:22:50;100691.40;;;21.18
67501;BMP180;54349;52.528;19.760;2023-09-30T05:25:19;100693.80;;;20.80
67501;BMP180;54349;52.528;19.760;2023-09-30T05:27:48;100695.20;;;20.90
67501;BMP180;54349;52.528;19.760;2023-09-30T05:30:18;100698.20;;;21.10
67501;BMP180;54349;52.528;19.760;2023-09-30T05:32:50;100704.00;;;21.30
67501;BMP180;54349;52.528;19.760;2023-09-30T05:35:21;100705.40;;;21.20
67501;BMP180;54349;52.528;19.760;2023-09-30T05:37:51;100710.80;;;20.80
67501;BMP180;54349;52.528;19.760;2023-09-30T05:40:21;100715.60;;;20.80
67501;BMP180;54349;52.528;19.760;2023-09-30T05:42:56;100716.20;;;21.04
67501;BMP180;54349;52.528;19.760;2023-09-30T05:45:33;100716.60;;;21.26
67501;BMP180;54349;52.528;19.760;2023-09-30T05:48:10;100717.60;;;21.26
67501;BMP180;54349;52.528;19.760;2023-09-30T05:50:46;100723.40;;;20.86
67501;BMP180;54349;52.528;19.760;2023-09-30T05:53:17;100724.60;;;20.72
67501;BMP180;54349;52.528;19.760;2023-09-30T05:55:50;100726.40;;;20.98
67501;BMP180;54349;52.528;19.760;2023-09-30T05:58:23;100729.60;;;21.20
67501;BMP180;54349;52.528;19.760;2023-09-30T06:01:01;100729.80;;;21.32
67501;BMP180;54349;52.528;19.760;2023-09-30T06:03:41;100735.60;;;21.00
67501;BMP180;54349;52.528;19.760;2023-09-30T06:06:17;100737.40;;;20.70
67501;BMP180;54349;52.528;19.760;2023-09-30T06:08:47;100737.80;;;20.90
67501;BMP180;54349;52.528;19.760;2023-09-30T06:11:22;100739.00;;;21.10
67501;BMP180;54349;52.528;19.760;2023-09-30T06:13:58;100743.60;;;21.30
67501;BMP180;54349;52.528;19.760;2023-09-30T06:16:38;100744.40;;;21.14
67501;BMP180;54349;52.528;19.760;2023-09-30T06:19:11;100748.60;;;20.72
67501;BMP180;54349;52.528;19.760;2023-09-30T06:21:42;100753.20;;;20.78
67501;BMP180;54349;52.528;19.760;2023-09-30T06:24:22;100755.40;;;21.00
67501;BMP180;54349;52.528;19.760;2023-09-30T06:26:59;100747.00;;;21.22
67501;BMP180;54349;52.528;19.760;2023-09-30T06:29:34;100751.00;;;21.30
67501;BMP180;54349;52.528;19.760;2023-09-30T06:32:19;100752.80;;;20.88
67501;BMP180;54349;52.528;19.760;2023-09-30T06:34:54;100755.60;;;20.70
67501;BMP180;54349;52.528;19.760;2023-09-30T06:37:41;100760.60;;;21.00
67501;BMP180;54349;52.528;19.760;2023-09-30T06:40:24;100763.60;;;21.20
67501;BMP180;54349;52.528;19.760;2023-09-30T06:42:58;100776.40;;;21.28
67501;BMP180;54349;52.528;19.760;2023-09-30T06:45:33;100779.80;;;20.90
67501;BMP180;54349;52.528;19.760;2023-09-30T06:48:19;100786.40;;;20.90
67501;BMP180;54349;52.528;19.760;2023-09-30T06:50:50;100793.20;;;21.10
67501;BMP180;54349;52.528;19.760;2023-09-30T06:53:34;100791.20;;;21.30
67501;BMP180;54349;52.528;19.760;2023-09-30T06:56:13;100795.80;;;21.20
67501;BMP180;54349;52.528;19.760;2023-09-30T06:58:55;100803.00;;;20.80
67501;BMP180;54349;52.528;19.760;2023-09-30T07:01:30;100802.40;;;20.90
67501;BMP180;54349;52.528;19.760;2023-09-30T07:04:10;100801.20;;;21.12
67501;BMP180;54349;52.528;19.760;2023-09-30T07:06:50;100802.20;;;21.32
67501;BMP180;54349;52.528;19.760;2023-09-30T07:09:26;100803.00;;;21.20
67501;BMP180;54349;52.528;19.760;2023-09-30T07:12:05;100805.60;;;20.82
67501;BMP180;54349;52.528;19.760;2023-09-30T07:14:58;100799.20;;;21.00
67501;BMP180;54349;52.528;19.760;2023-09-30T07:17:42;100800.40;;;21.20
67501;BMP180;54349;52.528;19.760;2023-09-30T07:20:19;100808.60;;;21.40
67501;BMP180;54349;52.528;19.760;2023-09-30T07:22:54;100817.00;;;21.08
67501;BMP180;54349;52.528;19.760;2023-09-30T07:25:47;100820.20;;;20.80
67501;BMP180;54349;52.528;19.760;2023-09-30T07:28:33;100827.40;;;21.00
67501;BMP180;54349;52.528;19.760;2023-09-30T07:31:17;100830.80;;;21.24
67501;BMP180;54349;52.528;19.760;2023-09-30T07:34:06;100834.60;;;21.40
67501;BMP180;54349;52.528;19.760;2023-09-30T07:36:41;100847.40;;;21.00
67501;BMP180;54349;52.528;19.760;2023-09-30T07:39:18;100840.00;;;20.80
67501;BMP180;54349;52.528;19.760;2023-09-30T07:41:52;100840.80;;;21.00
67501;BMP180;54349;52.528;19.760;2023-09-30T07:44:31;100842.20;;;21.20
67501;BMP180;54349;52.528;19.760;2023-09-30T07:47:06;100849.40;;;21.24
67501;BMP180;54349;52.528;19.760;2023-09-30T07:49:41;100857.60;;;20.88
67501;BMP180;54349;52.528;19.760;2023-09-30T07:52:25;100863.40;;;20.90
67501;BMP180;54349;52.528;19.760;2023-09-30T07:55:00;100870.20;;;21.10
67501;BMP180;54349;52.528;19.760;2023-09-30T07:57:43;100871.20;;;21.30
67501;BMP180;54349;52.528;19.760;2023-09-30T08:00:15;100874.40;;;21.32
67501;BMP180;54349;52.528;19.760;2023-09-30T08:02:49;100880.60;;;20.94
67501;BMP180;54349;52.528;19.760;2023-09-30T08:05:23;100882.60;;;21.02
67501;BMP180;54349;52.528;19.760;2023-09-30T08:07:57;100887.60;;;21.20
67501;BMP180;54349;52.528;19.760;2023-09-30T08:10:36;100890.80;;;21.40
67501;BMP180;54349;52.528;19.760;2023-09-30T08:13:10;100898.40;;;21.20
67501;BMP180;54349;52.528;19.760;2023-09-30T08:15:52;100906.40;;;20.90
67501;BMP180;54349;52.528;19.760;2023-09-30T08:18:27;100918.40;;;21.00
67501;BMP180;54349;52.528;19.760;2023-09-30T08:21:08;100920.40;;;21.24
67501;BMP180;54349;52.528;19.760;2023-09-30T08:23:50;100924.60;;;21.40
67501;BMP180;54349;52.528;19.760;2023-09-30T08:26:27;100924.80;;;21.22
67501;BMP180;54349;52.528;19.760;2023-09-30T08:29:13;100922.00;;;20.92
67501;BMP180;54349;52.528;19.760;2023-09-30T08:31:56;100926.60;;;21.10
67501;BMP180;54349;52.528;19.760;2023-09-30T08:34:35;100929.80;;;21.30
67501;BMP180;54349;52.528;19.760;2023-09-30T08:37:18;100924.80;;;21.50
67501;BMP180;54349;52.528;19.760;2023-09-30T08:40:11;100930.20;;;21.14
67501;BMP180;54349;52.528;19.760;2023-09-30T08:42:59;100926.40;;;20.94
67501;BMP180;54349;52.528;19.760;2023-09-30T08:45:36;100932.20;;;21.10
67501;BMP180;54349;52.528;19.760;2023-09-30T08:48:13;100937.60;;;21.30
67501;BMP180;54349;52.528;19.760;2023-09-30T08:50:50;100940.20;;;21.50
67501;BMP180;54349;52.528;19.760;2023-09-30T08:53:42;100939.00;;;21.18
67501;BMP180;54349;52.528;19.760;2023-09-30T08:56:27;100943.80;;;21.00
67501;BMP180;54349;52.528;19.760;2023-09-30T08:59:04;100941.80;;;21.20
67501;BMP180;54349;52.528;19.760;2023-09-30T09:01:39;100954.00;;;21.38
67501;BMP180;54349;52.528;19.760;2023-09-30T09:04:34;100955.20;;;21.50
67501;BMP180;54349;52.528;19.760;2023-09-30T09:07:09;100962.80;;;21.20
67501;BMP180;54349;52.528;19.760;2023-09-30T09:09:40;100965.60;;;21.10
67501;BMP180;54349;52.528;19.760;2023-09-30T09:12:23;100969.80;;;21.30
67501;BMP180;54349;52.528;19.760;2023-09-30T09:15:26;100976.20;;;21.50
67501;BMP180;54349;52.528;19.760;2023-09-30T09:18:00;100984.00;;;21.60
67501;BMP180;54349;52.528;19.760;2023-09-30T09:20:42;100986.20;;;21.20
67501;BMP180;54349;52.528;19.760;2023-09-30T09:23:22;100989.00;;;21.08
67501;BMP180;54349;52.528;19.760;2023-09-30T09:26:05;100991.00;;;21.24
67501;BMP180;54349;52.528;19.760;2023-09-30T09:28:48;100991.40;;;21.46
67501;BMP180;54349;52.528;19.760;2023-09-30T09:31:35;100996.60;;;21.36
67501;BMP180;54349;52.528;19.760;2023-09-30T09:34:15;100992.80;;;20.90
67501;BMP180;54349;52.528;19.760;2023-09-30T09:36:47;100993.60;;;20.90
67501;BMP180;54349;52.528;19.760;2023-09-30T09:39:32;100992.60;;;21.12
67501;BMP180;54349;52.528;19.760;2023-09-30T09:42:04;100992.40;;;21.40
67501;BMP180;54349;52.528;19.760;2023-09-30T09:44:45;100999.80;;;21.40
67501;BMP180;54349;52.528;19.760;2023-09-30T09:47:16;101001.20;;;21.00
67501;BMP180;54349;52.528;19.760;2023-09-30T09:50:06;101006.00;;;20.80
67501;BMP180;54349;52.528;19.760;2023-09-30T09:52:50;101013.80;;;21.10
67501;BMP180;54349;52.528;19.760;2023-09-30T09:55:42;101019.40;;;21.30
67501;BMP180;54349;52.528;19.760;2023-09-30T09:58:21;101018.20;;;21.50
67501;BMP180;54349;52.528;19.760;2023-09-30T10:01:16;101022.60;;;21.06
67501;BMP180;54349;52.528;19.760;2023-09-30T10:03:50;101018.00;;;20.80
67501;BMP180;54349;52.528;19.760;2023-09-30T10:06:40;101026.00;;;21.08
67501;BMP180;54349;52.528;19.760;2023-09-30T10:09:22;101029.40;;;21.36
67501;BMP180;54349;52.528;19.760;2023-09-30T10:12:04;101028.60;;;21.50
67501;BMP180;54349;52.528;19.760;2023-09-30T10:14:44;101033.60;;;21.16
67501;BMP180;54349;52.528;19.760;2023-09-30T10:17:19;101035.80;;;20.76
67501;BMP180;54349;52.528;19.760;2023-09-30T10:20:08;101040.80;;;20.72
67501;BMP180;54349;52.528;19.760;2023-09-30T10:22:40;101044.20;;;21.06
67501;BMP180;54349;52.528;19.760;2023-09-30T10:25:35;101049.20;;;21.32
67501;BMP180;54349;52.528;19.760;2023-09-30T10:31:19;101041.40;;;21.14
67501;BMP180;54349;52.528;19.760;2023-09-30T10:36:50;101044.00;;;20.70
67501;BMP180;54349;52.528;19.760;2023-09-30T10:39:59;101055.20;;;21.02
67501;BMP180;54349;52.528;19.760;2023-09-30T10:42:53;101059.40;;;21.36
67501;BMP180;54349;52.528;19.760;2023-09-30T10:45:42;101061.00;;;21.46
67501;BMP180;54349;52.528;19.760;2023-09-30T10:48:34;101058.00;;;21.04
67501;BMP180;54349;52.528;19.760;2023-09-30T10:51:16;101058.00;;;20.70
67501;BMP180;54349;52.528;19.760;2023-09-30T10:54:13;101055.60;;;20.60
67501;BMP180;54349;52.528;19.760;2023-09-30T10:56:54;101061.60;;;20.90
67501;BMP180;54349;52.528;19.760;2023-09-30T10:59:29;101056.40;;;21.20
67501;BMP180;54349;52.528;19.760;2023-09-30T11:02:02;101057.60;;;21.44
67501;BMP180;54349;52.528;19.760;2023-09-30T11:04:47;101058.60;;;21.20
67501;BMP180;54349;52.528;19.760;2023-09-30T11:07:42;101061.00;;;20.76
67501;BMP180;54349;52.528;19.760;2023-09-30T11:10:20;101066.00;;;20.70
67501;BMP180;54349;52.528;19.760;2023-09-30T11:13:11;101064.80;;;21.10
67501;BMP180;54349;52.528;19.760;2023-09-30T11:16:03;101062.20;;;21.40
67501;BMP180;54349;52.528;19.760;2023-09-30T11:18:42;101063.00;;;21.40
67501;BMP180;54349;52.528;19.760;2023-09-30T11:21:18;101062.20;;;21.00
67501;BMP180;54349;52.528;19.760;2023-09-30T11:24:04;101062.20;;;20.64
67501;BMP180;54349;52.528;19.760;2023-09-30T11:26:37;101070.00;;;20.40
67501;BMP180;54349;52.528;19.760;2023-09-30T11:29:23;101074.20;;;20.60
67501;BMP180;54349;52.528;19.760;2023-09-30T11:32:03;101068.40;;;21.00
67501;BMP180;54349;52.528;19.760;2023-09-30T11:34:46;101069.00;;;21.30
67501;BMP180;54349;52.528;19.760;2023-09-30T11:37:33;101073.60;;;21.30
67501;BMP180;54349;52.528;19.760;2023-09-30T11:40:13;101069.20;;;20.90
67501;BMP180;54349;52.528;19.760;2023-09-30T11:43:11;101069.80;;;20.60
67501;BMP180;54349;52.528;19.760;2023-09-30T11:45:46;101076.20;;;20.88
67501;BMP180;54349;52.528;19.760;2023-09-30T11:49:05;101079.20;;;21.26
67501;BMP180;54349;52.528;19.760;2023-09-30T11:52:02;101083.80;;;21.50
67501;BMP180;54349;52.528;19.760;2023-09-30T11:54:38;101084.60;;;21.10
67501;BMP180;54349;52.528;19.760;2023-09-30T11:57:17;101085.40;;;20.76
67501;BMP180;54349;52.528;19.760;2023-09-30T11:59:49;101089.00;;;20.50
67501;BMP180;54349;52.528;19.760;2023-09-30T12:02:22;101085.60;;;20.66
67501;BMP180;54349;52.528;19.760;2023-09-30T12:04:53;101086.20;;;20.98
67501;BMP180;54349;52.528;19.760;2023-09-30T12:07:23;101097.80;;;21.24
67501;BMP180;54349;52.528;19.760;2023-09-30T12:09:52;101096.20;;;21.50
67501;BMP180;54349;52.528;19.760;2023-09-30T12:12:21;101090.20;;;21.20
67501;BMP180;54349;52.528;19.760;2023-09-30T12:14:59;101087.80;;;20.80
67501;BMP180;54349;52.528;19.760;2023-09-30T12:17:33;101082.60;;;20.50
67501;BMP180;54349;52.528;19.760;2023-09-30T12:20:01;101081.80;;;20.72
67501;BMP180;54349;52.528;19.760;2023-09-30T12:22:32;101086.40;;;21.08
67501;BMP180;54349;52.528;19.760;2023-09-30T12:25:00;101090.80;;;21.30
67501;BMP180;54349;52.528;19.760;2023-09-30T12:27:29;101093.80;;;21.40
67501;BMP180;54349;52.528;19.760;2023-09-30T12:29:57;101094.60;;;21.00
67501;BMP180;54349;52.528;19.760;2023-09-30T12:32:26;101097.40;;;20.70
67501;BMP180;54349;52.528;19.760;2023-09-30T12:34:55;101094.60;;;20.92
67501;BMP180;54349;52.528;19.760;2023-09-30T12:37:23;101102.20;;;21.20
67501;BMP180;54349;52.528;19.760;2023-09-30T12:39:51;101104.60;;;21.50
67501;BMP180;54349;52.528;19.760;2023-09-30T12:42:20;101108.40;;;21.32
67501;BMP180;54349;52.528;19.760;2023-09-30T12:44:49;101108.00;;;20.94
67501;BMP180;54349;52.528;19.760;2023-09-30T12:47:17;101106.00;;;20.70
67501;BMP180;54349;52.528;19.760;2023-09-30T12:49:45;101099.80;;;20.92
67501;BMP180;54349;52.528;19.760;2023-09-30T12:52:13;101100.80;;;21.20
67501;BMP180;54349;52.528;19.760;2023-09-30T12:54:42;101107.00;;;21.40
67501;BMP180;54349;52.528;19.760;2023-09-30T12:57:10;101107.00;;;21.08
67501;BMP180;54349;52.528;19.760;2023-09-30T12:59:42;101107.20;;;20.72
67501;BMP180;54349;52.528;19.760;2023-09-30T13:02:10;101107.20;;;20.90
67501;BMP180;54349;52.528;19.760;2023-09-30T13:04:39;101110.60;;;21.14
67501;BMP180;54349;52.528;19.760;2023-09-30T13:07:13;101114.00;;;21.40
67501;BMP180;54349;52.528;19.760;2023-09-30T13:09:42;101110.40;;;21.20
67501;BMP180;54349;52.528;19.760;2023-09-30T13:12:11;101100.40;;;20.84
67501;BMP180;54349;52.528;19.760;2023-09-30T13:14:40;101096.80;;;20.90
67501;BMP180;54349;52.528;19.760;2023-09-30T13:17:08;101097.40;;;21.10
67501;BMP180;54349;52.528;19.760;2023-09-30T13:19:37;101090.60;;;21.34
67501;BMP180;54349;52.528;19.760;2023-09-30T13:22:05;101099.00;;;21.40
67501;BMP180;54349;52.528;19.760;2023-09-30T13:24:45;101101.20;;;20.98
67501;BMP180;54349;52.528;19.760;2023-09-30T13:27:14;101092.60;;;20.80
67501;BMP180;54349;52.528;19.760;2023-09-30T13:29:45;101103.00;;;21.02
67501;BMP180;54349;52.528;19.760;2023-09-30T13:32:20;101096.40;;;21.30
67501;BMP180;54349;52.528;19.760;2023-09-30T13:34:51;101099.40;;;21.48
67501;BMP180;54349;52.528;19.760;2023-09-30T13:37:22;101095.00;;;21.16
67501;BMP180;54349;52.528;19.760;2023-09-30T13:39:56;101103.40;;;20.80
67501;BMP180;54349;52.528;19.760;2023-09-30T13:42:26;101092.80;;;20.90
67501;BMP180;54349;52.528;19.760;2023-09-30T13:44:57;101095.60;;;21.10
67501;BMP180;54349;52.528;19.760;2023-09-30T13:47:26;101092.00;;;21.30
67501;BMP180;54349;52.528;19.760;2023-09-30T13:49:58;101094.00;;;21.18
67501;BMP180;54349;52.528;19.760;2023-09-30T13:52:30;101103.20;;;20.80
67501;BMP180;54349;52.528;19.760;2023-09-30T13:55:02;101094.40;;;20.90
67501;BMP180;54349;52.528;19.760;2023-09-30T13:57:35;101102.80;;;21.12
67501;BMP180;54349;52.528;19.760;2023-09-30T14:00:07;101103.00;;;21.34
67501;BMP180;54349;52.528;19.760;2023-09-30T14:02:39;101106.40;;;21.20
67501;BMP180;54349;52.528;19.760;2023-09-30T14:05:10;101103.60;;;20.90
67501;BMP180;54349;52.528;19.760;2023-09-30T14:07:40;101103.40;;;21.04
67501;BMP180;54349;52.528;19.760;2023-09-30T14:10:09;101101.00;;;21.26
67501;BMP180;54349;52.528;19.760;2023-09-30T14:12:41;101102.20;;;21.44
67501;BMP180;54349;52.528;19.760;2023-09-30T14:15:14;101105.20;;;21.30
67501;BMP180;54349;52.528;19.760;2023-09-30T14:17:46;101106.80;;;20.98
67501;BMP180;54349;52.528;19.760;2023-09-30T14:20:18;101103.80;;;21.10
67501;BMP180;54349;52.528;19.760;2023-09-30T14:22:52;101106.00;;;21.30
67501;BMP180;54349;52.528;19.760;2023-09-30T14:25:21;101106.60;;;21.50
67501;BMP180;54349;52.528;19.760;2023-09-30T14:27:50;101108.60;;;21.30
67501;BMP180;54349;52.528;19.760;2023-09-30T14:30:20;101104.80;;;20.90